Friday, January 18, 2019, 2:48 AM EST
Back to Local

KBOS, Boston Logan International

Location: Boston, MA, United States Lat: 42.367
Local Time: 2:48 AM EST ( 7:48 GMT) Lon: -71.017
Time Zone: US/Eastern Elev: 19 ft

Show me the last for .
Show Coded

Time T Td Feel RH Dir Speed Gust Alt SLP Vis Weather Sky Remarks
2019-01-18 01:54 29 5 19 35 140° 12 - 30.28 30.27 10 OVC110 None
2019-01-18 00:54 27 11 18 50 150° 9 - 30.29 30.29 10 SCT110 OVC140 6-hr Min Temp (1am): 27.0°F
6-hr Max Temp (1am): 27.0°F
2019-01-17 23:54 27 11 18 50 150° 9 - 30.32 30.31 10 OVC110 24-hr Min Temp (12am): 18.0°F
24-hr Max Temp (12am): 33.1°F
2019-01-17 22:54 27 11 19 50 150° 8 - 30.34 30.34 10 OVC110 None
2019-01-17 21:54 27 10 19 48 160° 7 - 30.34 30.34 10 OVC120 None
2019-01-17 20:54 27 10 17 48 160° 10 - 30.34 30.34 10 BKN120 OVC220 None
2019-01-17 19:54 27 7 18 42 160° 9 - 30.35 30.34 10 BKN150 OVC220 None
2019-01-17 18:54 27 3 17 35 130° 10 - 30.35 30.35 10 BKN120 OVC250 6-hr Min Temp (7pm): 25.0°F
6-hr Max Temp (7pm): 30.0°F
2019-01-17 17:54 26 1 19 33 140° 6 - 30.35 30.35 10 SCT180 SCT250 None
2019-01-17 16:54 25 0 19 32 90° 5 - 30.35 30.34 10 FEW035 SCT180 SCT250 None
2019-01-17 15:54 27 1 19 31 110° 7 - 30.34 30.34 10 FEW035 SCT180 BKN250 None
2019-01-17 14:54 27 -1 19 29 100° 7 - 30.35 30.34 10 FEW035 SCT180 BKN250 None
2019-01-17 13:54 29 -10 24 17 Variable 5 - 30.36 30.35 10 FEW035 SCT180 BKN250 None
2019-01-17 12:54 27 -9 19 19 340° 7 - 30.37 30.36 10 FEW180 SCT250 6-hr Min Temp (1pm): 18.0°F
6-hr Max Temp (1pm): 27.0°F
2019-01-17 11:54 26 -8 18 21 310° 8 - 30.38 30.38 10 FEW180 SCT250 None
2019-01-17 10:54 24 -7 14 24 300° 9 - 30.41 30.41 10 FEW180 FEW250 None
2019-01-17 09:54 21 -5 9 30 320° 13 - 30.42 30.42 10 FEW180 FEW250 None
2019-01-17 08:54 19 -4 6 35 300° 13 - 30.40 30.40 10 FEW200 FEW250 None
2019-01-17 07:54 18 -4 4 36 320° 15 - 30.37 30.37 10 FEW040 FEW200 None
2019-01-17 06:54 18 -3 5 38 320° 12 - 30.35 30.35 10 FEW040 FEW200 6-hr Min Temp (7am): 18.0°F
6-hr Max Temp (7am): 30.9°F
2019-01-17 05:54 20 1 4 42 320° 16 22 30.32 30.32 10 FEW250 None
2019-01-17 04:54 21 1 9 40 330° 12 - 30.31 30.31 10 FEW250 None
2019-01-17 03:54 23 2 12 39 330° 12 - 30.29 30.28 10 CLR None
2019-01-17 02:54 25 5 14 41 330° 12 - 30.25 30.25 10 CLR None

Support USWX by starting your Amazon purchase here.